createdAt,value
2023-05-19T00:01:54.966Z,6.63
2023-05-19T00:04:22.479Z,6.78
2023-05-19T00:06:51.730Z,6.84
2023-05-19T00:09:19.073Z,6.71
2023-05-19T00:11:46.470Z,6.69
2023-05-19T00:14:13.822Z,6.71
2023-05-19T00:16:42.208Z,6.56
2023-05-19T00:19:12.279Z,6.64
2023-05-19T00:21:39.567Z,6.63
2023-05-19T00:24:07.440Z,6.59
2023-05-19T00:26:34.703Z,6.52
2023-05-19T00:29:05.898Z,6.37
2023-05-19T00:31:34.056Z,6.13
2023-05-19T00:34:01.570Z,6.17
2023-05-19T00:36:29.125Z,6.26
2023-05-19T00:38:56.609Z,6.09
2023-05-19T00:41:23.968Z,6.05
2023-05-19T00:43:51.034Z,6.24
2023-05-19T00:46:19.234Z,5.88
2023-05-19T00:48:46.411Z,5.90
2023-05-19T00:51:16.639Z,5.90
2023-05-19T00:53:48.551Z,5.92
2023-05-19T00:56:16.765Z,5.82
2023-05-19T00:58:44.717Z,5.97
2023-05-19T01:01:12.308Z,5.85
2023-05-19T01:03:40.762Z,5.88
2023-05-19T01:06:08.294Z,5.94
2023-05-19T01:08:37.466Z,5.90
2023-05-19T01:11:06.652Z,5.85
2023-05-19T01:13:35.588Z,5.76
2023-05-19T01:16:14.856Z,5.76
2023-05-19T01:18:50.971Z,5.81
2023-05-19T01:21:36.200Z,5.77
2023-05-19T01:24:57.564Z,5.68
2023-05-19T01:27:33.287Z,5.68
2023-05-19T01:30:19.374Z,5.63
2023-05-19T01:32:47.873Z,5.59
2023-05-19T01:35:16.759Z,5.36
2023-05-19T01:37:45.295Z,5.58
2023-05-19T01:40:13.111Z,5.32
2023-05-19T01:42:41.459Z,5.32
2023-05-19T01:45:12.118Z,5.19
2023-05-19T01:47:43.212Z,4.95
2023-05-19T01:50:11.143Z,5.45
2023-05-19T01:52:38.460Z,5.45
2023-05-19T01:55:06.512Z,5.27
2023-05-19T01:57:39.832Z,5.29
2023-05-19T02:00:24.590Z,5.31
2023-05-19T02:03:28.372Z,5.26
2023-05-19T02:06:21.965Z,5.24
2023-05-19T02:09:02.214Z,5.18
2023-05-19T02:11:46.449Z,5.17
2023-05-19T02:14:39.683Z,5.09
2023-05-19T02:17:06.713Z,5.02
2023-05-19T02:19:38.025Z,4.87
2023-05-19T02:22:05.207Z,5.07
2023-05-19T02:24:32.306Z,4.86
2023-05-19T02:26:59.594Z,4.88
2023-05-19T02:29:26.647Z,5.14
2023-05-19T02:31:53.861Z,4.99
2023-05-19T02:34:21.116Z,4.95
2023-05-19T02:36:51.599Z,4.89
2023-05-19T02:39:18.707Z,5.08
2023-05-19T02:41:45.802Z,5.01
2023-05-19T02:44:12.937Z,5.02
2023-05-19T02:46:40.127Z,4.91
2023-05-19T02:49:07.351Z,4.90
2023-05-19T02:51:34.450Z,4.70
2023-05-19T02:54:01.514Z,4.89
2023-05-19T02:56:28.714Z,4.76
2023-05-19T02:58:56.313Z,4.75
2023-05-19T03:01:23.435Z,4.58
2023-05-19T03:03:51.057Z,4.62
2023-05-19T03:06:18.341Z,4.67
2023-05-19T03:08:45.554Z,4.61
2023-05-19T03:11:12.712Z,4.39
2023-05-19T03:13:39.777Z,4.51
2023-05-19T03:16:08.123Z,4.53
2023-05-19T03:18:37.132Z,4.45
2023-05-19T03:21:05.435Z,4.44
2023-05-19T03:23:33.145Z,4.64
2023-05-19T03:26:01.198Z,4.43
2023-05-19T03:28:28.634Z,4.41
2023-05-19T03:30:55.744Z,4.43
2023-05-19T03:33:29.731Z,4.25
2023-05-19T03:35:57.503Z,4.37
2023-05-19T03:38:24.698Z,4.28
2023-05-19T03:40:57.206Z,4.32
2023-05-19T03:43:24.327Z,4.31
2023-05-19T03:45:58.681Z,4.43
2023-05-19T03:48:53.207Z,4.30
2023-05-19T03:51:55.086Z,4.21
2023-05-19T03:54:34.541Z,4.22
2023-05-19T03:57:02.215Z,4.01
2023-05-19T03:59:31.303Z,4.34
2023-05-19T04:01:58.510Z,4.35
2023-05-19T04:04:26.875Z,4.27
2023-05-19T04:06:54.047Z,4.06
2023-05-19T04:09:21.634Z,4.27
2023-05-19T04:11:48.658Z,4.15
2023-05-19T04:14:16.017Z,4.49
2023-05-19T04:16:44.034Z,4.44
2023-05-19T04:19:11.406Z,4.45
2023-05-19T04:21:38.440Z,4.53
2023-05-19T04:24:06.508Z,4.35
2023-05-19T04:26:34.420Z,4.60
2023-05-19T04:29:04.728Z,4.62
2023-05-19T04:31:34.267Z,4.38
2023-05-19T04:34:01.767Z,4.41
2023-05-19T04:36:28.817Z,4.86
2023-05-19T04:39:02.746Z,4.65
2023-05-19T04:41:31.472Z,4.92
2023-05-19T04:43:58.731Z,4.80
2023-05-19T04:46:30.310Z,5.14
2023-05-19T04:48:57.859Z,5.30
2023-05-19T04:51:31.314Z,5.26
2023-05-19T04:54:01.446Z,5.42
2023-05-19T04:56:28.822Z,5.21
2023-05-19T04:58:56.634Z,5.56
2023-05-19T05:01:26.184Z,5.72
2023-05-19T05:03:55.628Z,5.92
2023-05-19T05:06:23.038Z,5.91
2023-05-19T05:08:50.886Z,5.85
2023-05-19T05:11:18.680Z,5.84
2023-05-19T05:13:46.964Z,6.32
2023-05-19T05:16:15.036Z,6.19
2023-05-19T05:18:44.611Z,6.17
2023-05-19T05:21:12.528Z,6.68
2023-05-19T05:23:40.795Z,6.71
2023-05-19T05:26:15.497Z,6.90
2023-05-19T05:28:42.563Z,7.00
2023-05-19T05:31:09.760Z,7.13
2023-05-19T05:33:38.443Z,7.26
2023-05-19T05:36:05.949Z,7.42
2023-05-19T05:38:33.134Z,7.49
2023-05-19T05:41:02.017Z,7.95
2023-05-19T05:43:30.159Z,8.05
2023-05-19T05:46:00.406Z,8.27
2023-05-19T05:48:27.848Z,8.22
2023-05-19T05:50:56.914Z,8.45
2023-05-19T05:53:32.099Z,8.40
2023-05-19T05:56:01.186Z,8.75
2023-05-19T05:58:37.656Z,8.94
2023-05-19T06:01:05.422Z,8.95
2023-05-19T06:03:33.479Z,9.39
2023-05-19T06:06:05.394Z,9.60
2023-05-19T06:08:32.774Z,9.74
2023-05-19T06:10:59.906Z,9.96
2023-05-19T06:13:29.178Z,9.82
2023-05-19T06:15:56.406Z,9.85
2023-05-19T06:18:28.582Z,10.04
2023-05-19T06:20:56.081Z,10.44
2023-05-19T06:23:23.918Z,10.66
2023-05-19T06:25:53.078Z,11.00
2023-05-19T06:28:23.087Z,11.18
2023-05-19T06:30:52.001Z,11.31
2023-05-19T06:33:29.249Z,11.53
2023-05-19T06:35:56.713Z,11.87
2023-05-19T06:38:23.856Z,11.73
2023-05-19T06:40:51.124Z,11.81
2023-05-19T06:43:18.856Z,12.17
2023-05-19T06:45:54.302Z,12.30
2023-05-19T06:48:22.431Z,12.38
2023-05-19T06:50:50.578Z,12.49
2023-05-19T06:53:19.860Z,12.71
2023-05-19T06:55:58.031Z,12.75
2023-05-19T06:58:27.982Z,12.92
2023-05-19T07:00:55.920Z,13.14
2023-05-19T07:03:27.300Z,12.77
2023-05-19T07:05:55.532Z,13.29
2023-05-19T07:08:23.037Z,13.21
2023-05-19T07:10:50.143Z,13.34
2023-05-19T07:13:17.708Z,13.38
2023-05-19T07:15:45.134Z,13.48
2023-05-19T07:18:12.635Z,13.71
2023-05-19T07:20:39.853Z,13.66
2023-05-19T07:23:06.912Z,13.67
2023-05-19T07:25:33.997Z,13.71
2023-05-19T07:28:01.256Z,14.02
2023-05-19T07:30:29.570Z,13.83
2023-05-19T07:32:56.708Z,13.69
2023-05-19T07:35:24.030Z,13.66
2023-05-19T07:37:52.292Z,13.70
2023-05-19T07:40:19.614Z,13.84
2023-05-19T07:42:46.666Z,13.80
2023-05-19T07:45:13.761Z,14.02
2023-05-19T07:47:41.030Z,13.99
2023-05-19T07:50:08.347Z,14.14
2023-05-19T07:52:35.546Z,14.26
2023-05-19T07:55:02.624Z,14.13
2023-05-19T07:57:29.871Z,14.30
2023-05-19T07:59:57.054Z,14.60
2023-05-19T08:02:24.192Z,14.59
2023-05-19T08:04:51.849Z,14.38
2023-05-19T08:07:19.001Z,14.45
2023-05-19T08:09:46.057Z,14.41
2023-05-19T08:12:13.131Z,14.40
2023-05-19T08:14:40.367Z,14.15
2023-05-19T08:17:07.506Z,14.69
2023-05-19T08:19:34.560Z,14.73
2023-05-19T08:22:02.001Z,14.97
2023-05-19T08:24:30.159Z,14.97
2023-05-19T08:26:57.326Z,15.32
2023-05-19T08:29:24.442Z,15.34
2023-05-19T08:31:53.093Z,14.95
2023-05-19T08:34:20.813Z,15.08
2023-05-19T08:36:48.037Z,15.43
2023-05-19T08:39:16.566Z,15.35
2023-05-19T08:41:44.035Z,15.38
2023-05-19T08:44:11.538Z,15.75
2023-05-19T08:46:38.710Z,15.82
2023-05-19T09:11:49.811Z,16.19
2023-05-19T09:14:16.906Z,15.89
2023-05-19T09:16:45.819Z,15.71
2023-05-19T09:19:16.024Z,15.36
2023-05-19T09:21:44.564Z,15.83
2023-05-19T09:24:11.890Z,15.59
2023-05-19T09:26:40.634Z,15.99
2023-05-19T09:29:18.021Z,15.98
2023-05-19T09:31:50.469Z,16.10
2023-05-19T09:34:18.052Z,16.28
2023-05-19T09:36:49.480Z,15.97
2023-05-19T09:39:17.983Z,16.40
2023-05-19T09:41:46.108Z,16.55
2023-05-19T09:44:22.099Z,16.46
2023-05-19T09:46:54.348Z,16.16
2023-05-19T09:49:25.237Z,16.54
2023-05-19T09:51:56.582Z,16.73
2023-05-19T09:54:24.823Z,16.39
2023-05-19T09:56:58.593Z,16.52
2023-05-19T09:59:27.056Z,16.19
2023-05-19T10:01:56.926Z,16.33
2023-05-19T10:04:29.492Z,16.41
2023-05-19T10:07:01.041Z,16.57
2023-05-19T10:09:29.285Z,16.41
2023-05-19T10:11:58.099Z,16.40
2023-05-19T10:14:31.099Z,16.65
2023-05-19T10:16:59.504Z,16.87
2023-05-19T10:19:28.834Z,17.11
2023-05-19T10:21:56.638Z,17.29
2023-05-19T10:24:24.232Z,17.50
2023-05-19T10:26:58.369Z,17.67
2023-05-19T10:29:30.123Z,17.51
2023-05-19T10:32:02.845Z,17.73
2023-05-19T10:34:51.666Z,18.01
2023-05-19T10:37:41.708Z,17.82
2023-05-19T10:40:28.441Z,17.91
2023-05-19T10:43:11.740Z,17.60
2023-05-19T10:45:51.605Z,17.58
2023-05-19T10:48:22.964Z,17.48
2023-05-19T10:50:54.703Z,17.30
2023-05-19T10:53:22.674Z,17.63
2023-05-19T10:55:59.047Z,17.89
2023-05-19T10:58:44.687Z,18.16
2023-05-19T11:01:17.713Z,18.08
2023-05-19T11:03:57.330Z,18.20
2023-05-19T11:06:25.694Z,18.34
2023-05-19T11:09:00.612Z,18.12
2023-05-19T11:11:53.935Z,17.79
2023-05-19T11:14:27.273Z,17.88
2023-05-19T11:16:58.501Z,18.15
2023-05-19T11:19:31.143Z,18.17
2023-05-19T11:22:07.796Z,18.42
2023-05-19T11:24:38.095Z,18.48
2023-05-19T11:27:19.150Z,18.36
2023-05-19T11:29:51.260Z,18.50
2023-05-19T11:32:21.158Z,18.54
2023-05-19T11:34:50.074Z,18.71
2023-05-19T11:37:17.366Z,18.49
2023-05-19T11:39:46.949Z,18.42
2023-05-19T11:42:14.446Z,18.71
2023-05-19T11:44:42.708Z,18.85
2023-05-19T11:47:09.799Z,18.76
2023-05-19T11:49:37.050Z,18.45
2023-05-19T11:52:04.747Z,18.68
2023-05-19T11:54:33.487Z,18.93
2023-05-19T11:57:04.798Z,18.87
2023-05-19T11:59:36.613Z,18.92
2023-05-19T12:02:13.843Z,19.21
2023-05-19T12:04:41.246Z,19.28
2023-05-19T12:07:08.698Z,19.06
2023-05-19T12:09:36.934Z,18.64
2023-05-19T12:12:04.550Z,18.74
2023-05-19T12:14:31.800Z,18.72
2023-05-19T12:16:59.417Z,18.35
2023-05-19T12:19:27.153Z,18.55
2023-05-19T12:21:54.994Z,18.87
2023-05-19T12:24:22.318Z,18.88
2023-05-19T12:26:50.318Z,18.70
2023-05-19T12:29:17.624Z,18.84
2023-05-19T12:31:47.058Z,18.94
2023-05-19T12:34:14.414Z,18.66
2023-05-19T12:36:41.566Z,18.52
2023-05-19T12:39:09.425Z,18.74
2023-05-19T12:41:37.563Z,18.89
2023-05-19T12:44:14.767Z,19.34
2023-05-19T12:46:42.511Z,19.13
2023-05-19T12:49:09.974Z,18.93
2023-05-19T12:51:37.213Z,19.30
2023-05-19T12:54:04.836Z,19.68
2023-05-19T12:56:32.088Z,19.68
2023-05-19T12:59:01.709Z,19.93
2023-05-19T13:01:29.556Z,19.80
2023-05-19T13:03:57.131Z,19.69
2023-05-19T13:06:24.277Z,20.11
2023-05-19T13:08:51.332Z,20.44
2023-05-19T13:11:19.044Z,20.79
2023-05-19T13:13:46.087Z,20.85
2023-05-19T13:16:13.402Z,20.47
2023-05-19T13:18:40.543Z,20.54
2023-05-19T13:21:07.728Z,20.74
2023-05-19T13:23:34.897Z,20.65
2023-05-19T13:26:04.767Z,21.22
2023-05-19T13:28:31.929Z,21.03
2023-05-19T13:30:59.482Z,21.64
2023-05-19T13:33:26.534Z,21.37
2023-05-19T13:35:54.006Z,20.27
2023-05-19T13:38:21.189Z,20.47
2023-05-19T13:40:48.205Z,20.13
2023-05-19T13:43:15.246Z,20.99
2023-05-19T13:45:44.331Z,20.96
2023-05-19T13:48:12.191Z,20.50
2023-05-19T13:50:39.352Z,20.71
2023-05-19T13:53:06.521Z,20.80
2023-05-19T13:55:33.705Z,20.78
2023-05-19T13:58:00.790Z,20.44
2023-05-19T14:00:27.840Z,20.32
2023-05-19T14:02:55.007Z,20.19
2023-05-19T14:05:22.193Z,20.28
2023-05-19T14:07:49.297Z,20.55
2023-05-19T14:10:16.543Z,20.94
2023-05-19T14:12:52.813Z,20.68
2023-05-19T14:15:32.335Z,20.51
2023-05-19T14:17:59.432Z,20.15
2023-05-19T14:20:29.175Z,20.26
2023-05-19T14:22:56.513Z,20.98
2023-05-19T14:25:23.590Z,20.68
2023-05-19T14:27:50.733Z,21.29
2023-05-19T14:30:17.845Z,21.28
2023-05-19T14:32:44.934Z,21.64
2023-05-19T14:35:12.038Z,21.76
2023-05-19T14:37:39.093Z,21.43
2023-05-19T14:40:06.859Z,21.59
2023-05-19T14:42:33.972Z,22.04
2023-05-19T14:45:01.001Z,21.74
2023-05-19T14:47:28.234Z,21.97
2023-05-19T14:49:55.326Z,21.20
2023-05-19T14:52:23.005Z,21.08
2023-05-19T14:54:50.099Z,20.54
2023-05-19T14:57:18.181Z,20.10
2023-05-19T14:59:45.314Z,20.13
2023-05-19T15:02:12.643Z,20.20
2023-05-19T15:04:39.752Z,20.28
2023-05-19T15:07:10.514Z,20.12
2023-05-19T15:09:38.427Z,20.35
2023-05-19T15:12:05.945Z,21.62
2023-05-19T15:14:33.079Z,22.36
2023-05-19T15:17:00.210Z,21.57
2023-05-19T15:19:27.377Z,21.70
2023-05-19T15:21:54.608Z,21.27
2023-05-19T15:24:21.697Z,21.10
2023-05-19T15:26:48.807Z,21.12
2023-05-19T15:29:15.865Z,21.09
2023-05-19T15:31:43.129Z,21.14
2023-05-19T15:34:10.345Z,21.30
2023-05-19T15:36:37.421Z,21.34
2023-05-19T15:39:05.041Z,21.38
2023-05-19T15:41:32.097Z,22.45
2023-05-19T15:44:00.622Z,23.69
2023-05-19T15:46:28.981Z,23.66
2023-05-19T15:48:56.092Z,22.08
2023-05-19T15:51:23.758Z,21.10
2023-05-19T15:53:50.891Z,21.21
2023-05-19T15:56:19.308Z,23.55
2023-05-19T15:58:46.390Z,25.40
2023-05-19T16:01:14.588Z,25.07
2023-05-19T16:03:41.992Z,23.35
2023-05-19T16:06:09.152Z,22.02
2023-05-19T16:08:36.426Z,21.23
2023-05-19T16:11:03.879Z,20.95
2023-05-19T16:13:32.604Z,20.54
2023-05-19T16:15:59.750Z,20.27
2023-05-19T16:18:27.656Z,20.38
2023-05-19T16:20:55.004Z,20.18
2023-05-19T16:23:23.622Z,20.09
2023-05-19T16:25:54.679Z,20.37
2023-05-19T16:28:23.848Z,20.96
2023-05-19T16:30:51.891Z,20.39
2023-05-19T16:33:18.992Z,20.32
2023-05-19T16:35:46.114Z,21.72
2023-05-19T16:38:13.177Z,20.81
2023-05-19T16:40:40.244Z,20.91
2023-05-19T16:43:07.307Z,21.45
2023-05-19T16:45:34.472Z,23.81
2023-05-19T16:48:01.661Z,25.93
2023-05-19T16:50:28.939Z,25.05
2023-05-19T16:52:56.032Z,25.21
2023-05-19T16:55:25.229Z,24.45
2023-05-19T16:57:52.437Z,22.79
2023-05-19T17:00:19.696Z,22.06
2023-05-19T17:02:46.927Z,23.67
2023-05-19T17:05:14.097Z,24.31
2023-05-19T17:07:41.149Z,22.40
2023-05-19T17:10:08.899Z,24.38
2023-05-19T17:12:36.888Z,25.35
2023-05-19T17:15:04.472Z,25.36
2023-05-19T17:17:31.570Z,25.48
2023-05-19T17:19:58.638Z,25.36
2023-05-19T17:22:25.718Z,26.45
2023-05-19T17:24:52.991Z,24.94
2023-05-19T17:27:20.105Z,23.90
2023-05-19T17:29:47.175Z,24.98
2023-05-19T17:32:14.260Z,25.18
2023-05-19T17:34:41.758Z,24.59
2023-05-19T17:37:08.798Z,24.64
2023-05-19T17:39:35.940Z,24.61
2023-05-19T17:42:03.171Z,25.23
2023-05-19T17:44:30.221Z,25.16
2023-05-19T17:46:57.946Z,25.07
2023-05-19T17:49:25.629Z,24.52
2023-05-19T17:51:53.042Z,23.42
2023-05-19T17:54:20.427Z,21.31
2023-05-19T17:56:50.121Z,20.99
2023-05-19T17:59:17.382Z,19.98
2023-05-19T18:01:44.773Z,19.87
2023-05-19T18:04:13.829Z,19.84
2023-05-19T18:06:46.025Z,19.38
2023-05-19T18:09:14.281Z,18.61
2023-05-19T18:11:41.314Z,18.94
2023-05-19T18:14:08.392Z,18.54
2023-05-19T18:16:35.859Z,18.68
2023-05-19T18:19:03.292Z,18.54
2023-05-19T18:21:31.311Z,18.46
2023-05-19T18:24:00.459Z,18.43
2023-05-19T18:26:27.499Z,18.43
2023-05-19T18:28:54.602Z,18.14
2023-05-19T18:31:21.855Z,17.91
2023-05-19T18:33:49.073Z,17.58
2023-05-19T18:36:16.613Z,17.37
2023-05-19T18:38:43.715Z,17.50
2023-05-19T18:41:10.867Z,17.26
2023-05-19T18:43:38.822Z,17.31
2023-05-19T18:46:06.148Z,17.04
2023-05-19T18:48:33.312Z,17.32
2023-05-19T18:51:00.480Z,17.24
2023-05-19T18:53:27.680Z,17.26
2023-05-19T18:55:54.723Z,17.16
2023-05-19T18:58:21.781Z,17.05
2023-05-19T19:00:48.912Z,16.92
2023-05-19T19:03:16.191Z,16.77
2023-05-19T19:05:44.249Z,16.62
2023-05-19T19:08:11.321Z,16.56
2023-05-19T19:10:40.632Z,16.64
2023-05-19T19:13:07.756Z,16.49
2023-05-19T19:15:34.936Z,16.50
2023-05-19T19:18:02.196Z,16.28
2023-05-19T19:20:29.333Z,16.15
2023-05-19T19:22:56.804Z,16.05
2023-05-19T19:25:23.926Z,15.87
2023-05-19T19:27:51.151Z,15.50
2023-05-19T19:30:18.319Z,15.74
2023-05-19T19:32:45.707Z,15.25
2023-05-19T19:35:12.784Z,15.61
2023-05-19T19:37:39.883Z,15.49
2023-05-19T19:40:07.431Z,15.54
2023-05-19T19:42:34.744Z,15.32
2023-05-19T19:45:02.028Z,15.25
2023-05-19T19:47:29.094Z,15.20
2023-05-19T19:49:56.317Z,15.19
2023-05-19T19:52:23.609Z,15.11
2023-05-19T19:54:51.075Z,15.11
2023-05-19T19:57:18.355Z,14.91
2023-05-19T19:59:45.421Z,14.74
2023-05-19T20:02:12.532Z,14.69
2023-05-19T20:04:39.701Z,14.71
2023-05-19T20:07:06.784Z,14.69
2023-05-19T20:09:33.786Z,14.12
2023-05-19T20:12:00.781Z,14.61
2023-05-19T20:14:27.847Z,14.48
2023-05-19T20:16:54.927Z,14.42
2023-05-19T20:19:27.962Z,14.33
2023-05-19T20:21:55.343Z,14.24
2023-05-19T20:24:22.375Z,14.20
2023-05-19T20:26:50.469Z,14.24
2023-05-19T20:29:17.509Z,14.20
2023-05-19T20:31:46.521Z,14.07
2023-05-19T20:34:14.204Z,14.04
2023-05-19T20:36:41.321Z,14.02
2023-05-19T20:39:10.017Z,13.97
2023-05-19T20:41:37.089Z,13.85
2023-05-19T20:44:04.553Z,13.85
2023-05-19T20:46:31.936Z,13.96
2023-05-19T20:48:59.113Z,14.05
2023-05-19T20:51:27.189Z,14.03
2023-05-19T20:53:54.232Z,14.00
2023-05-19T20:56:22.292Z,13.89
2023-05-19T20:58:49.387Z,13.91
2023-05-19T21:01:16.526Z,13.83
2023-05-19T21:03:43.598Z,13.69
2023-05-19T21:06:10.853Z,13.69
2023-05-19T21:08:37.943Z,13.62
2023-05-19T21:11:05.007Z,13.61
2023-05-19T21:13:32.305Z,13.46
2023-05-19T21:15:59.500Z,13.38
2023-05-19T21:18:26.566Z,13.33
2023-05-19T21:20:53.612Z,13.12
2023-05-19T21:23:20.618Z,13.04
2023-05-19T21:25:47.638Z,12.74
2023-05-19T21:28:14.666Z,12.63
2023-05-19T21:30:41.768Z,12.56
2023-05-19T21:33:08.986Z,12.38
2023-05-19T21:35:36.744Z,12.41
2023-05-19T21:38:11.855Z,12.27
2023-05-19T21:40:42.990Z,12.12
2023-05-19T21:43:10.993Z,12.05
2023-05-19T21:45:38.113Z,12.04
2023-05-19T21:48:05.426Z,11.95
2023-05-19T21:50:37.257Z,11.57
2023-05-19T21:53:05.571Z,11.88
2023-05-19T21:55:32.676Z,11.77
2023-05-19T21:58:01.644Z,11.24
2023-05-19T22:00:29.822Z,11.63
2023-05-19T22:02:57.029Z,11.42
2023-05-19T22:05:27.497Z,11.47
2023-05-19T22:07:54.603Z,11.08
2023-05-19T22:10:22.034Z,10.96
2023-05-19T22:12:49.376Z,11.33
2023-05-19T22:15:16.461Z,11.30
2023-05-19T22:17:43.641Z,11.19
2023-05-19T22:20:11.787Z,11.26
2023-05-19T22:22:38.790Z,11.22
2023-05-19T22:25:06.954Z,11.18
2023-05-19T22:27:34.148Z,11.19
2023-05-19T22:30:01.245Z,11.24
2023-05-19T22:32:28.841Z,11.15
2023-05-19T22:34:56.047Z,11.10
2023-05-19T22:37:24.093Z,10.67
2023-05-19T22:39:51.618Z,10.95
2023-05-19T22:42:18.666Z,10.83
2023-05-19T22:44:45.793Z,10.83
2023-05-19T22:47:13.801Z,10.79
2023-05-19T22:49:41.519Z,10.83
2023-05-19T22:52:09.949Z,10.41
2023-05-19T22:54:38.005Z,10.53
2023-05-19T22:57:05.443Z,10.79
2023-05-19T22:59:32.524Z,10.79
2023-05-19T23:01:59.551Z,10.76
2023-05-19T23:04:27.706Z,10.69
2023-05-19T23:06:54.922Z,10.61
2023-05-19T23:09:21.982Z,10.59
2023-05-19T23:11:49.393Z,10.54
2023-05-19T23:14:18.371Z,10.49
2023-05-19T23:16:45.444Z,10.36
2023-05-19T23:19:12.534Z,10.40
2023-05-19T23:21:39.629Z,10.28
2023-05-19T23:24:06.701Z,10.28
2023-05-19T23:26:33.799Z,10.29
2023-05-19T23:29:01.054Z,10.26
2023-05-19T23:31:28.153Z,10.34
2023-05-19T23:33:55.230Z,10.17
2023-05-19T23:36:23.099Z,10.17
2023-05-19T23:38:50.157Z,10.15
2023-05-19T23:41:17.188Z,10.16
2023-05-19T23:43:44.212Z,10.18
2023-05-19T23:46:11.324Z,10.12
2023-05-19T23:48:38.466Z,9.98
2023-05-19T23:51:05.596Z,9.94
2023-05-19T23:53:32.679Z,9.81
2023-05-19T23:55:59.732Z,9.93
2023-05-19T23:58:26.852Z,9.80
